sensor_id;sensor_type;location;lat;lon;timestamp;P1;durP1;ratioP1;P2;durP2;ratioP2
32250;SDS011;41295;48.518;9.206;2023-03-23T00:01:08;7.82;;;2.65;;
32250;SDS011;41295;48.518;9.206;2023-03-23T00:03:12;6.55;;;2.75;;
32250;SDS011;41295;48.518;9.206;2023-03-23T00:05:15;5.82;;;2.47;;
32250;SDS011;41295;48.518;9.206;2023-03-23T00:07:17;6.60;;;2.40;;
32250;SDS011;41295;48.518;9.206;2023-03-23T00:09:28;7.25;;;2.88;;
32250;SDS011;41295;48.518;9.206;2023-03-23T00:11:34;4.13;;;2.40;;
32250;SDS011;41295;48.518;9.206;2023-03-23T00:13:39;4.82;;;2.50;;
32250;SDS011;41295;48.518;9.206;2023-03-23T00:15:40;4.53;;;2.33;;
32250;SDS011;41295;48.518;9.206;2023-03-23T00:17:42;5.20;;;2.60;;
32250;SDS011;41295;48.518;9.206;2023-03-23T00:19:44;8.25;;;2.55;;
32250;SDS011;41295;48.518;9.206;2023-03-23T00:21:52;6.63;;;2.53;;
32250;SDS011;41295;48.518;9.206;2023-03-23T00:23:54;5.95;;;2.90;;
32250;SDS011;41295;48.518;9.206;2023-03-23T00:25:56;4.43;;;2.78;;
32250;SDS011;41295;48.518;9.206;2023-03-23T00:27:57;5.20;;;2.60;;
32250;SDS011;41295;48.518;9.206;2023-03-23T00:30:00;4.80;;;2.70;;
32250;SDS011;41295;48.518;9.206;2023-03-23T00:32:02;5.90;;;2.33;;
32250;SDS011;41295;48.518;9.206;2023-03-23T00:34:04;4.13;;;2.67;;
32250;SDS011;41295;48.518;9.206;2023-03-23T00:36:06;6.75;;;3.10;;
32250;SDS011;41295;48.518;9.206;2023-03-23T00:38:10;6.60;;;2.80;;
32250;SDS011;41295;48.518;9.206;2023-03-23T00:40:12;7.28;;;2.72;;
32250;SDS011;41295;48.518;9.206;2023-03-23T00:42:14;4.55;;;2.42;;
32250;SDS011;41295;48.518;9.206;2023-03-23T00:44:16;4.30;;;2.58;;
32250;SDS011;41295;48.518;9.206;2023-03-23T00:46:19;5.82;;;2.70;;
32250;SDS011;41295;48.518;9.206;2023-03-23T00:48:21;5.90;;;2.70;;
32250;SDS011;41295;48.518;9.206;2023-03-23T00:50:24;5.05;;;2.88;;
32250;SDS011;41295;48.518;9.206;2023-03-23T00:52:26;4.50;;;2.90;;
32250;SDS011;41295;48.518;9.206;2023-03-23T00:54:29;4.07;;;2.70;;
32250;SDS011;41295;48.518;9.206;2023-03-23T00:56:31;5.93;;;3.17;;
32250;SDS011;41295;48.518;9.206;2023-03-23T00:58:32;4.70;;;2.45;;
32250;SDS011;41295;48.518;9.206;2023-03-23T01:00:34;5.38;;;2.63;;
32250;SDS011;41295;48.518;9.206;2023-03-23T01:02:36;6.22;;;2.60;;
32250;SDS011;41295;48.518;9.206;2023-03-23T01:04:40;8.25;;;2.95;;
32250;SDS011;41295;48.518;9.206;2023-03-23T01:06:44;9.82;;;4.20;;
32250;SDS011;41295;48.518;9.206;2023-03-23T01:08:50;5.47;;;3.25;;
32250;SDS011;41295;48.518;9.206;2023-03-23T01:11:00;5.60;;;3.05;;
32250;SDS011;41295;48.518;9.206;2023-03-23T01:13:04;7.78;;;2.88;;
32250;SDS011;41295;48.518;9.206;2023-03-23T01:15:06;6.38;;;3.00;;
32250;SDS011;41295;48.518;9.206;2023-03-23T01:17:08;5.32;;;3.30;;
32250;SDS011;41295;48.518;9.206;2023-03-23T01:19:10;4.32;;;2.70;;
32250;SDS011;41295;48.518;9.206;2023-03-23T01:21:12;4.35;;;2.70;;
32250;SDS011;41295;48.518;9.206;2023-03-23T01:23:15;8.10;;;2.30;;
32250;SDS011;41295;48.518;9.206;2023-03-23T01:25:17;8.20;;;3.17;;
32250;SDS011;41295;48.518;9.206;2023-03-23T01:27:20;9.63;;;3.47;;
32250;SDS011;41295;48.518;9.206;2023-03-23T01:29:21;5.50;;;3.33;;
32250;SDS011;41295;48.518;9.206;2023-03-23T01:31:24;5.10;;;2.83;;
32250;SDS011;41295;48.518;9.206;2023-03-23T01:33:26;5.63;;;3.20;;
32250;SDS011;41295;48.518;9.206;2023-03-23T01:35:27;6.45;;;3.03;;
32250;SDS011;41295;48.518;9.206;2023-03-23T01:37:29;5.40;;;3.08;;
32250;SDS011;41295;48.518;9.206;2023-03-23T01:39:31;6.10;;;3.20;;
32250;SDS011;41295;48.518;9.206;2023-03-23T01:41:33;4.90;;;2.83;;
32250;SDS011;41295;48.518;9.206;2023-03-23T01:45:59;5.75;;;2.65;;
32250;SDS011;41295;48.518;9.206;2023-03-23T01:50:04;5.65;;;2.75;;
32250;SDS011;41295;48.518;9.206;2023-03-23T01:52:09;6.63;;;2.78;;
32250;SDS011;41295;48.518;9.206;2023-03-23T01:54:17;6.03;;;2.60;;
32250;SDS011;41295;48.518;9.206;2023-03-23T01:56:22;8.60;;;2.63;;
32250;SDS011;41295;48.518;9.206;2023-03-23T01:58:30;4.35;;;2.53;;
32250;SDS011;41295;48.518;9.206;2023-03-23T02:00:36;4.35;;;2.33;;
32250;SDS011;41295;48.518;9.206;2023-03-23T02:02:43;4.60;;;2.33;;
32250;SDS011;41295;48.518;9.206;2023-03-23T02:04:47;3.20;;;2.10;;
32250;SDS011;41295;48.518;9.206;2023-03-23T02:08:51;5.38;;;2.80;;
32250;SDS011;41295;48.518;9.206;2023-03-23T02:12:55;13.07;;;6.07;;
32250;SDS011;41295;48.518;9.206;2023-03-23T02:17:00;11.45;;;5.03;;
32250;SDS011;41295;48.518;9.206;2023-03-23T02:19:10;8.52;;;4.13;;
32250;SDS011;41295;48.518;9.206;2023-03-23T02:21:53;8.13;;;3.67;;
32250;SDS011;41295;48.518;9.206;2023-03-23T02:24:28;10.30;;;3.50;;
32250;SDS011;41295;48.518;9.206;2023-03-23T02:26:47;6.68;;;3.42;;
32250;SDS011;41295;48.518;9.206;2023-03-23T02:29:02;4.70;;;2.88;;
32250;SDS011;41295;48.518;9.206;2023-03-23T02:31:21;6.75;;;3.10;;
32250;SDS011;41295;48.518;9.206;2023-03-23T02:33:42;5.65;;;2.85;;
32250;SDS011;41295;48.518;9.206;2023-03-23T02:35:52;3.55;;;2.30;;
32250;SDS011;41295;48.518;9.206;2023-03-23T02:37:59;7.28;;;2.55;;
32250;SDS011;41295;48.518;9.206;2023-03-23T02:40:04;4.68;;;1.63;;
32250;SDS011;41295;48.518;9.206;2023-03-23T02:42:12;4.20;;;1.58;;
32250;SDS011;41295;48.518;9.206;2023-03-23T02:44:16;2.67;;;1.33;;
32250;SDS011;41295;48.518;9.206;2023-03-23T02:46:19;2.95;;;1.70;;
32250;SDS011;41295;48.518;9.206;2023-03-23T02:48:24;1.92;;;1.38;;
32250;SDS011;41295;48.518;9.206;2023-03-23T02:50:31;2.25;;;1.40;;
32250;SDS011;41295;48.518;9.206;2023-03-23T02:52:35;3.72;;;1.75;;
32250;SDS011;41295;48.518;9.206;2023-03-23T02:54:40;4.93;;;1.75;;
32250;SDS011;41295;48.518;9.206;2023-03-23T02:56:44;4.20;;;1.40;;
32250;SDS011;41295;48.518;9.206;2023-03-23T02:58:46;1.67;;;1.20;;
32250;SDS011;41295;48.518;9.206;2023-03-23T03:00:48;1.83;;;1.30;;
32250;SDS011;41295;48.518;9.206;2023-03-23T03:02:50;1.95;;;1.30;;
32250;SDS011;41295;48.518;9.206;2023-03-23T03:04:57;2.13;;;1.40;;
32250;SDS011;41295;48.518;9.206;2023-03-23T03:07:17;2.72;;;1.00;;
32250;SDS011;41295;48.518;9.206;2023-03-23T03:09:31;4.88;;;1.48;;
32250;SDS011;41295;48.518;9.206;2023-03-23T03:11:39;2.90;;;1.63;;
32250;SDS011;41295;48.518;9.206;2023-03-23T03:13:47;2.60;;;1.50;;
32250;SDS011;41295;48.518;9.206;2023-03-23T03:15:53;3.25;;;1.20;;
32250;SDS011;41295;48.518;9.206;2023-03-23T03:18:04;2.72;;;1.20;;
32250;SDS011;41295;48.518;9.206;2023-03-23T03:20:11;2.35;;;1.60;;
32250;SDS011;41295;48.518;9.206;2023-03-23T03:22:14;2.10;;;1.30;;
32250;SDS011;41295;48.518;9.206;2023-03-23T03:24:18;1.90;;;1.33;;
32250;SDS011;41295;48.518;9.206;2023-03-23T03:26:21;2.17;;;1.20;;
32250;SDS011;41295;48.518;9.206;2023-03-23T03:28:26;2.65;;;1.45;;
32250;SDS011;41295;48.518;9.206;2023-03-23T03:30:30;2.35;;;1.50;;
32250;SDS011;41295;48.518;9.206;2023-03-23T03:32:36;2.90;;;1.70;;
32250;SDS011;41295;48.518;9.206;2023-03-23T03:34:42;5.10;;;2.50;;
32250;SDS011;41295;48.518;9.206;2023-03-23T03:38:48;4.05;;;2.13;;
32250;SDS011;41295;48.518;9.206;2023-03-23T03:40:52;2.97;;;1.80;;
32250;SDS011;41295;48.518;9.206;2023-03-23T03:42:55;4.97;;;2.10;;
32250;SDS011;41295;48.518;9.206;2023-03-23T03:46:58;2.25;;;1.50;;
32250;SDS011;41295;48.518;9.206;2023-03-23T03:49:00;3.53;;;1.80;;
32250;SDS011;41295;48.518;9.206;2023-03-23T03:51:04;2.50;;;1.30;;
32250;SDS011;41295;48.518;9.206;2023-03-23T03:53:05;3.58;;;1.42;;
32250;SDS011;41295;48.518;9.206;2023-03-23T03:55:08;1.95;;;1.30;;
32250;SDS011;41295;48.518;9.206;2023-03-23T03:57:12;1.13;;;1.02;;
32250;SDS011;41295;48.518;9.206;2023-03-23T03:59:14;2.15;;;1.45;;
32250;SDS011;41295;48.518;9.206;2023-03-23T04:01:15;3.97;;;1.50;;
32250;SDS011;41295;48.518;9.206;2023-03-23T04:03:17;1.88;;;1.20;;
32250;SDS011;41295;48.518;9.206;2023-03-23T04:05:19;2.13;;;1.20;;
32250;SDS011;41295;48.518;9.206;2023-03-23T04:07:22;1.95;;;1.23;;
32250;SDS011;41295;48.518;9.206;2023-03-23T04:09:26;4.32;;;1.50;;
32250;SDS011;41295;48.518;9.206;2023-03-23T04:11:28;6.13;;;2.20;;
32250;SDS011;41295;48.518;9.206;2023-03-23T04:13:31;3.00;;;1.70;;
32250;SDS011;41295;48.518;9.206;2023-03-23T04:15:32;4.47;;;1.80;;
32250;SDS011;41295;48.518;9.206;2023-03-23T04:17:34;3.22;;;1.70;;
32250;SDS011;41295;48.518;9.206;2023-03-23T04:19:37;3.08;;;1.30;;
32250;SDS011;41295;48.518;9.206;2023-03-23T04:21:39;5.45;;;1.75;;
32250;SDS011;41295;48.518;9.206;2023-03-23T04:23:40;2.58;;;1.50;;
32250;SDS011;41295;48.518;9.206;2023-03-23T04:25:42;4.28;;;1.48;;
32250;SDS011;41295;48.518;9.206;2023-03-23T04:27:44;2.25;;;1.73;;
32250;SDS011;41295;48.518;9.206;2023-03-23T04:29:47;2.28;;;1.50;;
32250;SDS011;41295;48.518;9.206;2023-03-23T04:31:49;2.00;;;1.55;;
32250;SDS011;41295;48.518;9.206;2023-03-23T04:33:52;4.35;;;1.73;;
32250;SDS011;41295;48.518;9.206;2023-03-23T04:35:55;3.08;;;1.55;;
32250;SDS011;41295;48.518;9.206;2023-03-23T04:38:00;3.65;;;1.67;;
32250;SDS011;41295;48.518;9.206;2023-03-23T04:40:02;2.40;;;1.60;;
32250;SDS011;41295;48.518;9.206;2023-03-23T04:42:10;3.88;;;1.67;;
32250;SDS011;41295;48.518;9.206;2023-03-23T04:44:13;2.15;;;1.35;;
32250;SDS011;41295;48.518;9.206;2023-03-23T04:46:18;1.92;;;1.52;;
32250;SDS011;41295;48.518;9.206;2023-03-23T04:48:21;2.15;;;1.45;;
32250;SDS011;41295;48.518;9.206;2023-03-23T04:50:23;3.25;;;1.77;;
32250;SDS011;41295;48.518;9.206;2023-03-23T04:52:27;1.85;;;1.35;;
32250;SDS011;41295;48.518;9.206;2023-03-23T04:56:30;2.22;;;1.42;;
32250;SDS011;41295;48.518;9.206;2023-03-23T04:58:32;3.20;;;1.58;;
32250;SDS011;41295;48.518;9.206;2023-03-23T05:00:34;3.95;;;1.83;;
32250;SDS011;41295;48.518;9.206;2023-03-23T05:02:38;3.65;;;2.03;;
32250;SDS011;41295;48.518;9.206;2023-03-23T05:04:40;3.78;;;2.10;;
32250;SDS011;41295;48.518;9.206;2023-03-23T05:06:41;2.47;;;1.58;;
32250;SDS011;41295;48.518;9.206;2023-03-23T05:08:45;7.05;;;1.60;;
32250;SDS011;41295;48.518;9.206;2023-03-23T05:10:50;3.83;;;2.05;;
32250;SDS011;41295;48.518;9.206;2023-03-23T05:12:53;2.70;;;1.65;;
32250;SDS011;41295;48.518;9.206;2023-03-23T05:14:55;2.38;;;1.58;;
32250;SDS011;41295;48.518;9.206;2023-03-23T05:16:56;4.57;;;1.90;;
32250;SDS011;41295;48.518;9.206;2023-03-23T05:18:59;3.25;;;1.60;;
32250;SDS011;41295;48.518;9.206;2023-03-23T05:21:01;3.00;;;1.73;;
32250;SDS011;41295;48.518;9.206;2023-03-23T05:23:03;3.58;;;1.33;;
32250;SDS011;41295;48.518;9.206;2023-03-23T05:25:05;4.35;;;2.03;;
32250;SDS011;41295;48.518;9.206;2023-03-23T05:27:09;3.55;;;1.90;;
32250;SDS011;41295;48.518;9.206;2023-03-23T05:29:11;3.15;;;2.00;;
32250;SDS011;41295;48.518;9.206;2023-03-23T05:31:13;3.55;;;1.80;;
32250;SDS011;41295;48.518;9.206;2023-03-23T05:33:14;4.95;;;1.90;;
32250;SDS011;41295;48.518;9.206;2023-03-23T05:37:20;3.05;;;1.63;;
32250;SDS011;41295;48.518;9.206;2023-03-23T05:41:23;5.13;;;1.80;;
32250;SDS011;41295;48.518;9.206;2023-03-23T05:43:25;4.88;;;1.70;;
32250;SDS011;41295;48.518;9.206;2023-03-23T05:45:27;6.07;;;1.80;;
32250;SDS011;41295;48.518;9.206;2023-03-23T05:49:30;6.40;;;2.17;;
32250;SDS011;41295;48.518;9.206;2023-03-23T05:51:33;3.67;;;1.70;;
32250;SDS011;41295;48.518;9.206;2023-03-23T05:53:35;4.57;;;2.03;;
32250;SDS011;41295;48.518;9.206;2023-03-23T05:55:36;4.60;;;1.98;;
32250;SDS011;41295;48.518;9.206;2023-03-23T05:57:38;6.55;;;2.08;;
32250;SDS011;41295;48.518;9.206;2023-03-23T06:01:40;5.68;;;2.22;;
32250;SDS011;41295;48.518;9.206;2023-03-23T06:03:42;6.68;;;2.17;;
32250;SDS011;41295;48.518;9.206;2023-03-23T06:05:44;8.50;;;2.60;;
32250;SDS011;41295;48.518;9.206;2023-03-23T06:07:47;5.93;;;2.30;;
32250;SDS011;41295;48.518;9.206;2023-03-23T06:09:49;4.70;;;2.22;;
32250;SDS011;41295;48.518;9.206;2023-03-23T06:13:52;3.58;;;1.90;;
32250;SDS011;41295;48.518;9.206;2023-03-23T06:15:54;5.97;;;2.10;;
32250;SDS011;41295;48.518;9.206;2023-03-23T06:17:58;10.13;;;2.50;;
32250;SDS011;41295;48.518;9.206;2023-03-23T06:19:59;7.97;;;2.20;;
32250;SDS011;41295;48.518;9.206;2023-03-23T06:22:04;2.92;;;1.92;;
32250;SDS011;41295;48.518;9.206;2023-03-23T06:24:07;3.33;;;1.95;;
32250;SDS011;41295;48.518;9.206;2023-03-23T06:26:09;3.17;;;2.05;;
32250;SDS011;41295;48.518;9.206;2023-03-23T06:28:14;3.63;;;2.40;;
32250;SDS011;41295;48.518;9.206;2023-03-23T06:32:17;7.18;;;2.00;;
32250;SDS011;41295;48.518;9.206;2023-03-23T06:36:20;3.85;;;2.03;;
32250;SDS011;41295;48.518;9.206;2023-03-23T06:38:22;3.38;;;2.00;;
32250;SDS011;41295;48.518;9.206;2023-03-23T06:40:26;3.05;;;2.10;;
32250;SDS011;41295;48.518;9.206;2023-03-23T06:42:28;5.75;;;2.20;;
32250;SDS011;41295;48.518;9.206;2023-03-23T06:44:29;5.32;;;2.00;;
32250;SDS011;41295;48.518;9.206;2023-03-23T06:46:31;3.08;;;1.75;;
32250;SDS011;41295;48.518;9.206;2023-03-23T06:48:33;6.63;;;1.88;;
32250;SDS011;41295;48.518;9.206;2023-03-23T06:52:36;3.38;;;1.90;;
32250;SDS011;41295;48.518;9.206;2023-03-23T06:54:37;4.25;;;2.22;;
32250;SDS011;41295;48.518;9.206;2023-03-23T06:56:40;6.07;;;1.98;;
32250;SDS011;41295;48.518;9.206;2023-03-23T06:58:42;7.72;;;2.13;;
32250;SDS011;41295;48.518;9.206;2023-03-23T07:00:45;6.63;;;2.30;;
32250;SDS011;41295;48.518;9.206;2023-03-23T07:02:47;6.25;;;2.50;;
32250;SDS011;41295;48.518;9.206;2023-03-23T07:04:49;5.50;;;2.55;;
32250;SDS011;41295;48.518;9.206;2023-03-23T07:08:52;11.98;;;2.80;;
32250;SDS011;41295;48.518;9.206;2023-03-23T07:12:57;6.32;;;2.63;;
32250;SDS011;41295;48.518;9.206;2023-03-23T07:14:59;7.88;;;2.63;;
32250;SDS011;41295;48.518;9.206;2023-03-23T07:17:02;6.45;;;2.50;;
32250;SDS011;41295;48.518;9.206;2023-03-23T07:19:04;3.95;;;2.15;;
32250;SDS011;41295;48.518;9.206;2023-03-23T07:21:06;4.22;;;2.00;;
32250;SDS011;41295;48.518;9.206;2023-03-23T07:23:07;7.22;;;1.92;;
32250;SDS011;41295;48.518;9.206;2023-03-23T07:25:09;4.93;;;2.20;;
32250;SDS011;41295;48.518;9.206;2023-03-23T07:27:11;4.32;;;2.35;;
32250;SDS011;41295;48.518;9.206;2023-03-23T07:29:15;5.43;;;1.77;;
32250;SDS011;41295;48.518;9.206;2023-03-23T07:31:16;2.65;;;2.00;;
32250;SDS011;41295;48.518;9.206;2023-03-23T07:33:18;6.82;;;2.30;;
32250;SDS011;41295;48.518;9.206;2023-03-23T07:37:21;6.03;;;1.95;;
32250;SDS011;41295;48.518;9.206;2023-03-23T07:41:24;5.78;;;1.73;;
32250;SDS011;41295;48.518;9.206;2023-03-23T07:43:26;6.93;;;1.92;;
32250;SDS011;41295;48.518;9.206;2023-03-23T07:45:30;9.70;;;2.38;;
32250;SDS011;41295;48.518;9.206;2023-03-23T07:47:32;5.82;;;1.92;;
32250;SDS011;41295;48.518;9.206;2023-03-23T07:49:33;5.60;;;2.13;;
32250;SDS011;41295;48.518;9.206;2023-03-23T07:51:35;3.60;;;1.77;;
32250;SDS011;41295;48.518;9.206;2023-03-23T07:53:38;3.42;;;2.08;;
32250;SDS011;41295;48.518;9.206;2023-03-23T07:55:41;3.95;;;1.90;;
32250;SDS011;41295;48.518;9.206;2023-03-23T07:57:42;6.00;;;2.08;;
32250;SDS011;41295;48.518;9.206;2023-03-23T07:59:44;4.90;;;1.80;;
32250;SDS011;41295;48.518;9.206;2023-03-23T08:03:49;4.90;;;2.10;;
32250;SDS011;41295;48.518;9.206;2023-03-23T08:05:51;3.28;;;1.98;;
32250;SDS011;41295;48.518;9.206;2023-03-23T08:07:53;6.72;;;2.13;;
32250;SDS011;41295;48.518;9.206;2023-03-23T08:09:55;2.88;;;2.00;;
32250;SDS011;41295;48.518;9.206;2023-03-23T08:11:57;6.72;;;2.90;;
32250;SDS011;41295;48.518;9.206;2023-03-23T08:16:00;4.93;;;3.03;;
32250;SDS011;41295;48.518;9.206;2023-03-23T08:18:05;9.80;;;2.60;;
32250;SDS011;41295;48.518;9.206;2023-03-23T08:20:07;5.30;;;3.22;;
32250;SDS011;41295;48.518;9.206;2023-03-23T08:22:12;5.38;;;3.35;;
32250;SDS011;41295;48.518;9.206;2023-03-23T08:24:15;7.47;;;3.40;;
32250;SDS011;41295;48.518;9.206;2023-03-23T08:26:16;6.25;;;2.50;;
32250;SDS011;41295;48.518;9.206;2023-03-23T08:30:20;7.00;;;1.98;;
32250;SDS011;41295;48.518;9.206;2023-03-23T08:32:22;3.78;;;2.08;;
32250;SDS011;41295;48.518;9.206;2023-03-23T08:36:26;3.22;;;1.70;;
32250;SDS011;41295;48.518;9.206;2023-03-23T08:38:28;2.72;;;1.48;;
32250;SDS011;41295;48.518;9.206;2023-03-23T08:40:30;6.22;;;1.70;;
32250;SDS011;41295;48.518;9.206;2023-03-23T08:42:33;4.90;;;1.63;;
32250;SDS011;41295;48.518;9.206;2023-03-23T08:44:34;5.47;;;1.95;;
32250;SDS011;41295;48.518;9.206;2023-03-23T08:46:36;3.65;;;1.50;;
32250;SDS011;41295;48.518;9.206;2023-03-23T08:48:39;3.00;;;1.88;;
32250;SDS011;41295;48.518;9.206;2023-03-23T08:50:42;4.68;;;1.80;;
32250;SDS011;41295;48.518;9.206;2023-03-23T08:52:43;7.32;;;1.83;;
32250;SDS011;41295;48.518;9.206;2023-03-23T08:54:45;4.15;;;1.55;;
32250;SDS011;41295;48.518;9.206;2023-03-23T08:56:47;3.30;;;1.60;;
32250;SDS011;41295;48.518;9.206;2023-03-23T08:58:48;2.28;;;1.60;;
32250;SDS011;41295;48.518;9.206;2023-03-23T09:00:50;5.45;;;1.75;;
32250;SDS011;41295;48.518;9.206;2023-03-23T09:02:52;5.95;;;1.95;;
32250;SDS011;41295;48.518;9.206;2023-03-23T09:04:54;6.10;;;1.88;;
32250;SDS011;41295;48.518;9.206;2023-03-23T09:06:57;5.28;;;1.75;;
32250;SDS011;41295;48.518;9.206;2023-03-23T09:08:59;3.75;;;1.40;;
32250;SDS011;41295;48.518;9.206;2023-03-23T09:11:06;2.50;;;1.45;;
32250;SDS011;41295;48.518;9.206;2023-03-23T09:13:09;5.03;;;1.50;;
32250;SDS011;41295;48.518;9.206;2023-03-23T09:15:12;4.50;;;1.75;;
32250;SDS011;41295;48.518;9.206;2023-03-23T09:17:15;3.50;;;1.73;;
32250;SDS011;41295;48.518;9.206;2023-03-23T09:19:16;3.60;;;1.63;;
32250;SDS011;41295;48.518;9.206;2023-03-23T09:21:18;3.30;;;1.75;;
32250;SDS011;41295;48.518;9.206;2023-03-23T09:23:21;3.28;;;1.50;;
32250;SDS011;41295;48.518;9.206;2023-03-23T09:25:25;4.32;;;1.55;;
32250;SDS011;41295;48.518;9.206;2023-03-23T09:27:28;1.75;;;1.30;;
32250;SDS011;41295;48.518;9.206;2023-03-23T09:31:31;4.82;;;1.60;;
32250;SDS011;41295;48.518;9.206;2023-03-23T09:33:33;2.85;;;1.60;;
32250;SDS011;41295;48.518;9.206;2023-03-23T09:35:35;4.72;;;1.58;;
32250;SDS011;41295;48.518;9.206;2023-03-23T09:37:38;3.05;;;1.65;;
32250;SDS011;41295;48.518;9.206;2023-03-23T09:39:42;5.28;;;1.45;;
32250;SDS011;41295;48.518;9.206;2023-03-23T09:41:51;2.42;;;1.52;;
32250;SDS011;41295;48.518;9.206;2023-03-23T09:44:06;2.70;;;1.70;;
32250;SDS011;41295;48.518;9.206;2023-03-23T09:46:22;2.97;;;1.85;;
32250;SDS011;41295;48.518;9.206;2023-03-23T09:48:35;3.60;;;1.92;;
32250;SDS011;41295;48.518;9.206;2023-03-23T09:50:42;2.88;;;1.48;;
32250;SDS011;41295;48.518;9.206;2023-03-23T09:52:51;3.97;;;1.60;;
32250;SDS011;41295;48.518;9.206;2023-03-23T09:54:58;2.38;;;1.58;;
32250;SDS011;41295;48.518;9.206;2023-03-23T09:57:00;2.75;;;1.52;;
32250;SDS011;41295;48.518;9.206;2023-03-23T09:59:05;2.90;;;1.30;;
32250;SDS011;41295;48.518;9.206;2023-03-23T10:01:15;3.25;;;1.67;;
32250;SDS011;41295;48.518;9.206;2023-03-23T10:03:21;3.58;;;1.60;;
32250;SDS011;41295;48.518;9.206;2023-03-23T10:05:31;2.70;;;1.48;;
32250;SDS011;41295;48.518;9.206;2023-03-23T10:07:35;3.33;;;1.30;;
32250;SDS011;41295;48.518;9.206;2023-03-23T10:09:37;2.08;;;1.40;;
32250;SDS011;41295;48.518;9.206;2023-03-23T10:11:44;3.42;;;1.50;;
32250;SDS011;41295;48.518;9.206;2023-03-23T10:13:58;2.53;;;1.30;;
32250;SDS011;41295;48.518;9.206;2023-03-23T10:16:09;2.30;;;1.38;;
32250;SDS011;41295;48.518;9.206;2023-03-23T10:18:15;2.25;;;1.27;;
32250;SDS011;41295;48.518;9.206;2023-03-23T10:20:24;7.00;;;1.80;;
32250;SDS011;41295;48.518;9.206;2023-03-23T10:22:33;3.90;;;1.40;;
32250;SDS011;41295;48.518;9.206;2023-03-23T10:24:43;2.85;;;1.50;;
32250;SDS011;41295;48.518;9.206;2023-03-23T10:26:54;3.80;;;1.30;;
32250;SDS011;41295;48.518;9.206;2023-03-23T10:29:08;6.68;;;1.88;;
32250;SDS011;41295;48.518;9.206;2023-03-23T10:31:15;2.88;;;1.40;;
32250;SDS011;41295;48.518;9.206;2023-03-23T10:33:22;3.95;;;2.00;;
32250;SDS011;41295;48.518;9.206;2023-03-23T10:35:33;2.58;;;1.67;;
32250;SDS011;41295;48.518;9.206;2023-03-23T10:37:38;2.75;;;1.70;;
32250;SDS011;41295;48.518;9.206;2023-03-23T10:39:47;3.28;;;1.60;;
32250;SDS011;41295;48.518;9.206;2023-03-23T10:41:51;1.63;;;1.48;;
32250;SDS011;41295;48.518;9.206;2023-03-23T10:45:57;2.95;;;1.52;;
32250;SDS011;41295;48.518;9.206;2023-03-23T10:48:04;3.85;;;1.52;;
32250;SDS011;41295;48.518;9.206;2023-03-23T10:50:13;3.47;;;1.63;;
32250;SDS011;41295;48.518;9.206;2023-03-23T10:52:26;4.15;;;1.70;;
32250;SDS011;41295;48.518;9.206;2023-03-23T10:54:35;4.45;;;1.70;;
32250;SDS011;41295;48.518;9.206;2023-03-23T10:56:40;1.92;;;1.40;;
32250;SDS011;41295;48.518;9.206;2023-03-23T10:58:44;4.47;;;1.65;;
32250;SDS011;41295;48.518;9.206;2023-03-23T11:00:47;3.40;;;1.60;;
32250;SDS011;41295;48.518;9.206;2023-03-23T11:02:57;4.55;;;1.70;;
32250;SDS011;41295;48.518;9.206;2023-03-23T11:05:00;3.15;;;1.40;;
32250;SDS011;41295;48.518;9.206;2023-03-23T11:07:03;3.20;;;1.80;;
32250;SDS011;41295;48.518;9.206;2023-03-23T11:09:09;2.47;;;1.50;;
32250;SDS011;41295;48.518;9.206;2023-03-23T11:11:15;3.92;;;1.80;;
32250;SDS011;41295;48.518;9.206;2023-03-23T11:13:18;2.28;;;1.40;;
32250;SDS011;41295;48.518;9.206;2023-03-23T11:15:26;5.38;;;1.40;;
32250;SDS011;41295;48.518;9.206;2023-03-23T11:17:31;6.63;;;1.70;;
32250;SDS011;41295;48.518;9.206;2023-03-23T11:19:34;2.70;;;1.30;;
32250;SDS011;41295;48.518;9.206;2023-03-23T11:21:37;2.50;;;1.45;;
32250;SDS011;41295;48.518;9.206;2023-03-23T11:23:40;5.38;;;1.50;;
32250;SDS011;41295;48.518;9.206;2023-03-23T11:25:56;3.75;;;1.60;;
32250;SDS011;41295;48.518;9.206;2023-03-23T11:28:00;3.13;;;1.50;;
32250;SDS011;41295;48.518;9.206;2023-03-23T11:30:08;2.70;;;2.00;;
32250;SDS011;41295;48.518;9.206;2023-03-23T11:32:11;2.42;;;1.67;;
32250;SDS011;41295;48.518;9.206;2023-03-23T11:34:17;3.28;;;2.03;;
32250;SDS011;41295;48.518;9.206;2023-03-23T11:36:28;3.83;;;1.38;;
32250;SDS011;41295;48.518;9.206;2023-03-23T11:38:31;5.13;;;1.60;;
32250;SDS011;41295;48.518;9.206;2023-03-23T11:40:42;3.25;;;1.50;;
32250;SDS011;41295;48.518;9.206;2023-03-23T11:42:46;4.93;;;1.85;;
32250;SDS011;41295;48.518;9.206;2023-03-23T11:44:49;3.88;;;1.75;;
32250;SDS011;41295;48.518;9.206;2023-03-23T11:46:55;1.83;;;1.40;;
32250;SDS011;41295;48.518;9.206;2023-03-23T11:49:02;2.60;;;1.42;;
32250;SDS011;41295;48.518;9.206;2023-03-23T11:51:19;5.57;;;1.85;;
32250;SDS011;41295;48.518;9.206;2023-03-23T11:53:39;4.77;;;1.40;;
32250;SDS011;41295;48.518;9.206;2023-03-23T11:55:55;2.95;;;1.60;;
32250;SDS011;41295;48.518;9.206;2023-03-23T11:58:07;3.88;;;2.38;;
32250;SDS011;41295;48.518;9.206;2023-03-23T12:00:14;3.20;;;1.83;;
32250;SDS011;41295;48.518;9.206;2023-03-23T12:02:32;4.45;;;1.70;;
32250;SDS011;41295;48.518;9.206;2023-03-23T12:05:17;3.40;;;1.90;;
32250;SDS011;41295;48.518;9.206;2023-03-23T12:07:40;3.97;;;1.60;;
32250;SDS011;41295;48.518;9.206;2023-03-23T12:09:56;1.52;;;1.40;;
32250;SDS011;41295;48.518;9.206;2023-03-23T12:12:07;5.30;;;2.08;;
32250;SDS011;41295;48.518;9.206;2023-03-23T12:16:22;3.08;;;1.80;;
32250;SDS011;41295;48.518;9.206;2023-03-23T12:18:47;7.55;;;2.03;;
32250;SDS011;41295;48.518;9.206;2023-03-23T12:20:57;5.85;;;1.42;;
32250;SDS011;41295;48.518;9.206;2023-03-23T12:23:11;3.35;;;1.65;;
32250;SDS011;41295;48.518;9.206;2023-03-23T12:25:33;5.63;;;2.00;;
32250;SDS011;41295;48.518;9.206;2023-03-23T12:27:47;4.95;;;1.75;;
32250;SDS011;41295;48.518;9.206;2023-03-23T12:29:58;3.17;;;1.48;;
32250;SDS011;41295;48.518;9.206;2023-03-23T12:32:16;2.55;;;1.70;;
32250;SDS011;41295;48.518;9.206;2023-03-23T12:34:32;2.10;;;1.50;;
32250;SDS011;41295;48.518;9.206;2023-03-23T12:36:45;3.63;;;1.85;;
32250;SDS011;41295;48.518;9.206;2023-03-23T12:39:01;5.70;;;1.90;;
32250;SDS011;41295;48.518;9.206;2023-03-23T12:41:15;3.13;;;1.70;;
32250;SDS011;41295;48.518;9.206;2023-03-23T12:43:19;2.83;;;1.52;;
32250;SDS011;41295;48.518;9.206;2023-03-23T12:45:39;4.88;;;1.80;;
32250;SDS011;41295;48.518;9.206;2023-03-23T12:48:09;2.05;;;1.60;;
32250;SDS011;41295;48.518;9.206;2023-03-23T12:50:15;5.05;;;1.48;;
32250;SDS011;41295;48.518;9.206;2023-03-23T12:52:21;5.22;;;1.80;;
32250;SDS011;41295;48.518;9.206;2023-03-23T12:54:30;3.15;;;1.70;;
32250;SDS011;41295;48.518;9.206;2023-03-23T12:56:39;1.98;;;1.63;;
32250;SDS011;41295;48.518;9.206;2023-03-23T12:58:47;5.35;;;2.03;;
32250;SDS011;41295;48.518;9.206;2023-03-23T13:01:03;2.85;;;1.60;;
32250;SDS011;41295;48.518;9.206;2023-03-23T13:03:10;4.15;;;1.80;;
32250;SDS011;41295;48.518;9.206;2023-03-23T13:05:26;5.18;;;1.67;;
32250;SDS011;41295;48.518;9.206;2023-03-23T13:07:37;3.90;;;1.60;;
32250;SDS011;41295;48.518;9.206;2023-03-23T13:09:46;3.13;;;1.70;;
32250;SDS011;41295;48.518;9.206;2023-03-23T13:11:54;4.80;;;2.10;;
32250;SDS011;41295;48.518;9.206;2023-03-23T13:13:59;4.38;;;1.58;;
32250;SDS011;41295;48.518;9.206;2023-03-23T13:16:11;2.35;;;1.58;;
32250;SDS011;41295;48.518;9.206;2023-03-23T13:18:24;5.38;;;1.70;;
32250;SDS011;41295;48.518;9.206;2023-03-23T13:20:38;2.97;;;1.70;;
32250;SDS011;41295;48.518;9.206;2023-03-23T13:22:51;3.33;;;1.75;;
32250;SDS011;41295;48.518;9.206;2023-03-23T13:24:58;3.00;;;1.83;;
32250;SDS011;41295;48.518;9.206;2023-03-23T13:27:04;4.90;;;1.70;;
32250;SDS011;41295;48.518;9.206;2023-03-23T13:29:08;3.00;;;1.52;;
32250;SDS011;41295;48.518;9.206;2023-03-23T13:31:15;2.75;;;1.58;;